createdAt,value
2023-01-22T00:00:25.291Z,53.03
2023-01-22T00:02:54.400Z,53.77
2023-01-22T00:05:23.388Z,68.73
2023-01-22T00:07:52.383Z,70.07
2023-01-22T00:10:21.450Z,73.90
2023-01-22T00:12:50.403Z,81.20
2023-01-22T00:15:19.588Z,99.47
2023-01-22T00:17:50.007Z,93.80
2023-01-22T00:20:19.860Z,91.40
2023-01-22T00:22:49.159Z,94.67
2023-01-22T00:25:18.385Z,89.60
2023-01-22T00:27:47.478Z,107.77
2023-01-22T00:30:16.909Z,108.27
2023-01-22T00:32:49.418Z,130.77
2023-01-22T00:35:18.589Z,123.80
2023-01-22T00:37:49.037Z,141.57
2023-01-22T00:40:19.190Z,141.80
2023-01-22T00:43:07.139Z,134.67
2023-01-22T00:45:36.003Z,124.63
2023-01-22T00:48:07.310Z,137.27
2023-01-22T00:50:36.344Z,124.83
2023-01-22T00:53:05.287Z,127.63
2023-01-22T00:55:34.393Z,126.20
2023-01-22T00:58:03.311Z,123.23
2023-01-22T01:00:32.610Z,130.07
2023-01-22T01:03:18.901Z,123.03
2023-01-22T01:05:49.524Z,134.03
2023-01-22T01:08:20.259Z,131.83
2023-01-22T01:10:49.463Z,126.37
2023-01-22T01:13:18.293Z,131.50
2023-01-22T01:15:47.325Z,129.73
2023-01-22T01:18:16.439Z,124.97
2023-01-22T01:20:45.431Z,142.50
2023-01-22T01:23:15.976Z,123.07
2023-01-22T01:25:44.961Z,151.67
2023-01-22T01:28:14.111Z,155.40
2023-01-22T01:30:43.162Z,146.60
2023-01-22T01:33:12.148Z,139.63
2023-01-22T01:35:41.594Z,139.77
2023-01-22T01:38:10.609Z,142.63
2023-01-22T01:40:45.137Z,147.23
2023-01-22T01:43:17.277Z,110.37
2023-01-22T01:45:46.624Z,97.77
2023-01-22T01:48:25.347Z,73.03
2023-01-22T01:51:01.223Z,81.73
2023-01-22T01:53:30.913Z,57.63
2023-01-22T01:56:03.789Z,58.17
2023-01-22T01:58:35.507Z,59.80
2023-01-22T02:01:10.250Z,73.80
2023-01-22T02:03:40.800Z,78.03
2023-01-22T02:06:12.687Z,79.60
2023-01-22T02:08:44.170Z,88.80
2023-01-22T02:11:15.331Z,74.73
2023-01-22T02:13:48.245Z,81.90
2023-01-22T02:16:17.500Z,76.87
2023-01-22T02:18:46.531Z,77.33
2023-01-22T02:21:45.098Z,77.00
2023-01-22T02:24:15.811Z,85.00
2023-01-22T02:26:46.685Z,246.47
2023-01-22T02:29:19.912Z,284.70
2023-01-22T02:31:49.871Z,137.63
2023-01-22T02:34:24.699Z,126.60
2023-01-22T02:36:56.303Z,116.33
2023-01-22T02:39:43.899Z,119.17
2023-01-22T02:42:13.099Z,167.30
2023-01-22T02:44:43.656Z,223.50
2023-01-22T02:47:14.245Z,168.77
2023-01-22T02:49:43.350Z,73.67
2023-01-22T02:52:13.742Z,57.83
2023-01-22T02:54:42.777Z,64.73
2023-01-22T02:57:11.906Z,63.03
2023-01-22T02:59:41.164Z,60.43
2023-01-22T03:02:13.146Z,50.23
2023-01-22T03:04:42.736Z,55.13
2023-01-22T03:07:14.206Z,55.90
2023-01-22T03:09:43.479Z,54.17
2023-01-22T03:12:13.094Z,56.13
2023-01-22T03:14:59.723Z,58.03
2023-01-22T03:17:46.093Z,83.90
2023-01-22T03:20:32.980Z,60.53
2023-01-22T03:23:03.393Z,60.10
2023-01-22T03:25:32.389Z,59.00
2023-01-22T03:28:16.728Z,62.30
2023-01-22T03:30:51.179Z,69.07
2023-01-22T03:33:20.294Z,60.63
2023-01-22T03:35:51.185Z,59.33
2023-01-22T03:38:24.020Z,49.83
2023-01-22T03:40:54.217Z,48.07
2023-01-22T03:43:24.577Z,53.30
2023-01-22T03:45:53.787Z,70.63
2023-01-22T03:48:23.969Z,71.97
2023-01-22T03:50:53.107Z,72.13
2023-01-22T03:53:23.474Z,65.80
2023-01-22T03:55:59.373Z,56.10
2023-01-22T03:58:28.539Z,44.83
2023-01-22T04:00:58.333Z,39.17
2023-01-22T04:03:29.982Z,39.90
2023-01-22T04:06:00.665Z,32.37
2023-01-22T04:08:33.094Z,35.40
2023-01-22T04:11:03.157Z,32.50
2023-01-22T04:13:34.047Z,35.97
2023-01-22T04:16:04.267Z,33.00
2023-01-22T04:19:05.440Z,30.13
2023-01-22T04:22:09.886Z,59.50
2023-01-22T04:24:41.428Z,33.17
2023-01-22T04:27:29.073Z,24.17
2023-01-22T04:29:58.805Z,24.23
2023-01-22T04:32:27.882Z,28.53
2023-01-22T04:35:15.609Z,29.90
2023-01-22T04:37:50.346Z,34.27
2023-01-22T04:40:21.272Z,29.37
2023-01-22T04:42:51.585Z,54.43
2023-01-22T04:45:21.572Z,36.23
2023-01-22T04:47:50.950Z,42.03
2023-01-22T04:50:25.690Z,37.87
2023-01-22T04:52:56.504Z,35.57
2023-01-22T04:55:28.154Z,36.00
2023-01-22T04:58:04.785Z,48.13
2023-01-22T05:00:33.947Z,53.00
2023-01-22T05:03:05.863Z,38.87
2023-01-22T05:05:35.764Z,35.43
2023-01-22T05:08:05.282Z,37.03
2023-01-22T05:10:38.879Z,41.20
2023-01-22T05:13:10.411Z,32.80
2023-01-22T05:15:41.290Z,37.50
2023-01-22T05:18:13.346Z,30.90
2023-01-22T05:20:49.621Z,33.33
2023-01-22T05:23:19.904Z,28.17
2023-01-22T05:25:51.617Z,35.53
2023-01-22T05:28:39.118Z,34.43
2023-01-22T05:31:26.367Z,65.30
2023-01-22T05:34:06.942Z,62.67
2023-01-22T05:36:36.049Z,41.13
2023-01-22T05:39:15.074Z,40.13
2023-01-22T05:41:46.185Z,44.53
2023-01-22T05:44:16.605Z,37.40
2023-01-22T05:46:52.003Z,42.57
2023-01-22T05:49:28.659Z,56.50
2023-01-22T05:51:59.092Z,59.80
2023-01-22T05:54:28.169Z,49.67
2023-01-22T05:57:00.553Z,76.23
2023-01-22T05:59:31.244Z,64.60
2023-01-22T06:02:04.381Z,54.63
2023-01-22T06:04:35.621Z,58.20
2023-01-22T06:07:23.082Z,58.47
2023-01-22T06:09:52.112Z,52.67
2023-01-22T06:12:23.524Z,65.37
2023-01-22T06:14:53.295Z,48.23
2023-01-22T06:17:22.440Z,47.60
2023-01-22T06:19:59.081Z,58.47
2023-01-22T06:22:28.571Z,61.67
2023-01-22T06:25:01.646Z,61.83
2023-01-22T06:27:49.493Z,67.90
2023-01-22T06:30:37.993Z,57.57
2023-01-22T06:33:08.424Z,51.17
2023-01-22T06:35:56.287Z,38.30
2023-01-22T06:38:26.097Z,42.30
2023-01-22T06:40:55.607Z,63.33
2023-01-22T06:43:27.702Z,42.00
2023-01-22T06:45:57.296Z,35.07
2023-01-22T06:48:44.056Z,41.67
2023-01-22T06:51:13.598Z,44.67
2023-01-22T06:53:42.832Z,33.00
2023-01-22T06:56:12.205Z,54.40
2023-01-22T06:58:43.574Z,36.83
2023-01-22T07:01:12.524Z,34.90
2023-01-22T07:03:42.561Z,34.27
2023-01-22T07:06:11.820Z,32.70
2023-01-22T07:08:41.316Z,44.80
2023-01-22T07:11:10.807Z,31.70
2023-01-22T07:13:40.216Z,27.87
2023-01-22T07:16:11.297Z,31.67
2023-01-22T07:18:40.273Z,33.10
2023-01-22T07:21:09.286Z,37.20
2023-01-22T07:23:38.227Z,36.87
2023-01-22T07:26:07.261Z,41.53
2023-01-22T07:28:36.357Z,37.53
2023-01-22T07:31:05.542Z,41.33
2023-01-22T07:33:36.157Z,42.60
2023-01-22T07:36:05.692Z,38.50
2023-01-22T07:38:34.693Z,40.50
2023-01-22T07:41:07.239Z,31.93
2023-01-22T07:43:40.431Z,33.73
2023-01-22T07:46:09.877Z,37.20
2023-01-22T07:48:40.403Z,31.67
2023-01-22T07:51:09.574Z,39.20
2023-01-22T07:53:40.278Z,40.53
2023-01-22T07:56:09.953Z,35.07
2023-01-22T07:58:39.521Z,40.80
2023-01-22T08:01:09.078Z,43.80
2023-01-22T08:03:39.869Z,40.40
2023-01-22T08:06:13.262Z,35.73
2023-01-22T08:08:42.871Z,31.30
2023-01-22T08:11:11.809Z,32.27
2023-01-22T08:13:40.790Z,29.87
2023-01-22T08:16:10.307Z,33.10
2023-01-22T08:18:40.960Z,26.40
2023-01-22T08:21:10.164Z,28.20
2023-01-22T08:23:39.059Z,25.97
2023-01-22T08:26:07.994Z,38.37
2023-01-22T08:28:38.867Z,35.63
2023-01-22T08:31:16.378Z,33.40
2023-01-22T08:33:53.537Z,31.73
2023-01-22T08:36:22.615Z,28.30
2023-01-22T08:38:51.660Z,27.00
2023-01-22T08:41:20.722Z,25.17
2023-01-22T08:43:50.016Z,27.80
2023-01-22T08:46:19.088Z,26.57
2023-01-22T08:48:49.069Z,28.60
2023-01-22T08:51:19.545Z,30.40
2023-01-22T08:53:48.526Z,35.60
2023-01-22T08:56:17.359Z,26.23
2023-01-22T08:58:46.269Z,34.67
2023-01-22T09:01:19.221Z,26.13
2023-01-22T09:03:49.006Z,30.07
2023-01-22T09:06:19.578Z,30.97
2023-01-22T09:08:48.657Z,30.23
2023-01-22T09:11:17.734Z,26.57
2023-01-22T09:13:47.672Z,34.50
2023-01-22T09:16:16.736Z,26.80
2023-01-22T09:18:45.618Z,34.53
2023-01-22T09:21:14.598Z,25.77
2023-01-22T09:23:45.709Z,30.00
2023-01-22T09:26:14.750Z,28.63
2023-01-22T09:28:44.424Z,24.73
2023-01-22T09:31:15.544Z,21.73
2023-01-22T09:33:44.622Z,23.60
2023-01-22T09:36:16.094Z,18.37
2023-01-22T09:39:05.347Z,27.47
2023-01-22T09:41:38.457Z,22.23
2023-01-22T09:44:12.459Z,26.53
2023-01-22T09:46:45.689Z,33.67
2023-01-22T09:49:17.717Z,29.73
2023-01-22T09:51:48.649Z,37.30
2023-01-22T09:54:18.987Z,29.70
2023-01-22T09:56:50.440Z,20.47
2023-01-22T09:59:21.108Z,15.10
2023-01-22T10:01:53.979Z,15.00
2023-01-22T10:04:31.255Z,19.67
2023-01-22T10:07:03.060Z,18.17
2023-01-22T10:09:35.421Z,25.90
2023-01-22T10:12:14.257Z,22.80
2023-01-22T10:14:44.853Z,22.97
2023-01-22T10:17:21.587Z,21.93
2023-01-22T10:19:55.736Z,22.83
2023-01-22T10:22:26.990Z,35.57
2023-01-22T10:24:58.710Z,21.00
2023-01-22T10:27:36.900Z,48.00
2023-01-22T10:30:17.248Z,31.17
2023-01-22T10:32:46.624Z,22.27
2023-01-22T10:35:20.086Z,23.13
2023-01-22T10:37:51.231Z,24.73
2023-01-22T10:40:27.944Z,25.47
2023-01-22T10:43:05.841Z,24.13
2023-01-22T10:45:34.964Z,20.03
2023-01-22T10:48:22.366Z,23.30
2023-01-22T10:51:03.423Z,24.50
2023-01-22T10:53:34.715Z,15.97
2023-01-22T10:56:10.349Z,21.73
2023-01-22T10:58:48.344Z,23.90
2023-01-22T11:01:33.890Z,19.97
2023-01-22T11:04:14.777Z,26.03
2023-01-22T11:06:54.382Z,24.03
2023-01-22T11:09:29.049Z,16.87
2023-01-22T11:12:06.659Z,17.60
2023-01-22T11:14:38.503Z,22.77
2023-01-22T11:17:15.670Z,26.37
2023-01-22T11:19:53.488Z,26.40
2023-01-22T11:22:28.153Z,39.07
2023-01-22T11:24:57.336Z,40.23
2023-01-22T11:27:55.907Z,33.63
2023-01-22T11:30:54.982Z,39.23
2023-01-22T11:33:38.019Z,46.23
2023-01-22T11:36:12.474Z,42.13
2023-01-22T11:38:50.017Z,39.50
2023-01-22T11:41:41.062Z,49.77
2023-01-22T11:44:36.988Z,38.03
2023-01-22T11:47:28.405Z,57.57
2023-01-22T11:50:11.959Z,51.13
2023-01-22T11:52:50.710Z,46.83
2023-01-22T11:55:29.457Z,47.37
2023-01-22T11:58:10.278Z,40.40
2023-01-22T12:00:47.296Z,47.70
2023-01-22T12:03:57.899Z,40.60
2023-01-22T12:06:56.133Z,40.93
2023-01-22T12:09:29.717Z,39.23
2023-01-22T12:12:11.100Z,36.83
2023-01-22T12:14:56.665Z,43.37
2023-01-22T12:17:42.327Z,44.47
2023-01-22T12:20:26.592Z,55.87
2023-01-22T12:23:00.997Z,44.07
2023-01-22T12:25:37.775Z,46.60
2023-01-22T12:28:13.617Z,53.13
2023-01-22T12:30:49.357Z,38.43
2023-01-22T12:33:23.731Z,35.03
2023-01-22T12:35:54.728Z,30.37
2023-01-22T12:38:36.856Z,34.03
2023-01-22T12:41:19.853Z,32.03
2023-01-22T12:43:52.778Z,27.37
2023-01-22T12:46:30.313Z,29.17
2023-01-22T12:49:07.430Z,30.03
2023-01-22T12:51:43.019Z,42.27
2023-01-22T12:54:23.195Z,36.23
2023-01-22T12:56:53.715Z,36.10
2023-01-22T12:59:33.497Z,32.37
2023-01-22T13:02:04.652Z,39.60
2023-01-22T13:04:35.697Z,33.07
2023-01-22T13:07:21.517Z,39.70
2023-01-22T13:10:01.204Z,69.33
2023-01-22T13:12:38.390Z,55.73
2023-01-22T13:15:08.260Z,74.07
2023-01-22T13:17:37.993Z,53.00
2023-01-22T13:20:18.037Z,38.33
2023-01-22T13:22:47.796Z,40.50
2023-01-22T13:25:28.031Z,44.17
2023-01-22T13:27:58.474Z,42.30
2023-01-22T13:30:31.062Z,32.93
2023-01-22T13:33:08.174Z,47.67
2023-01-22T13:35:43.014Z,47.80
2023-01-22T13:38:22.223Z,34.87
2023-01-22T13:40:55.312Z,51.47
2023-01-22T13:43:25.017Z,39.53
2023-01-22T13:45:55.932Z,34.70
2023-01-22T13:48:27.961Z,39.97
2023-01-22T13:51:02.094Z,35.13
2023-01-22T13:53:33.611Z,44.03
2023-01-22T13:56:03.024Z,41.70
2023-01-22T13:58:48.028Z,33.07
2023-01-22T14:01:29.688Z,29.90
2023-01-22T14:04:02.759Z,31.47
2023-01-22T14:06:43.784Z,31.60
2023-01-22T14:09:12.946Z,34.27
2023-01-22T14:11:42.593Z,36.50
2023-01-22T14:14:19.864Z,41.37
2023-01-22T14:16:49.085Z,43.93
2023-01-22T14:19:18.195Z,43.17
2023-01-22T14:21:48.691Z,36.80
2023-01-22T14:24:17.772Z,20.13
2023-01-22T14:26:46.663Z,17.67
2023-01-22T14:29:16.017Z,25.27
2023-01-22T14:31:45.181Z,18.30
2023-01-22T14:34:14.148Z,18.87
2023-01-22T14:36:45.134Z,13.63
2023-01-22T14:39:15.835Z,22.97
2023-01-22T14:41:44.925Z,19.33
2023-01-22T14:44:13.908Z,15.47
2023-01-22T14:46:42.940Z,22.60
2023-01-22T14:49:11.959Z,25.17
2023-01-22T14:51:41.407Z,15.43
2023-01-22T14:54:10.398Z,18.60
2023-01-22T14:56:40.932Z,18.03
2023-01-22T14:59:20.687Z,16.57
2023-01-22T15:01:51.005Z,12.27
2023-01-22T15:04:19.980Z,13.57
2023-01-22T15:06:48.938Z,14.60
2023-01-22T15:09:17.940Z,21.80
2023-01-22T15:11:48.461Z,17.53
2023-01-22T15:14:17.440Z,20.10
2023-01-22T15:16:46.408Z,16.97
2023-01-22T15:19:16.890Z,24.30
2023-01-22T15:21:47.456Z,23.97
2023-01-22T15:24:16.513Z,19.90
2023-01-22T15:26:45.370Z,17.50
2023-01-22T15:29:16.447Z,17.73
2023-01-22T15:31:45.598Z,32.80
2023-01-22T15:34:14.717Z,31.67
2023-01-22T15:36:43.677Z,21.90
2023-01-22T15:39:12.656Z,30.80
2023-01-22T15:41:41.562Z,27.93
2023-01-22T15:44:15.419Z,34.93
2023-01-22T15:46:44.862Z,34.93
2023-01-22T15:49:13.779Z,48.70
2023-01-22T15:51:43.505Z,53.57
2023-01-22T15:54:16.735Z,90.37
2023-01-22T15:56:46.082Z,101.10
2023-01-22T15:59:16.675Z,81.40
2023-01-22T16:01:45.688Z,85.60
2023-01-22T16:04:14.705Z,123.93
2023-01-22T16:06:43.681Z,133.53
2023-01-22T16:09:12.786Z,119.03
2023-01-22T16:11:41.740Z,176.10
2023-01-22T16:14:10.734Z,135.27
2023-01-22T16:16:42.628Z,146.13
2023-01-22T16:19:13.711Z,158.07
2023-01-22T16:21:43.680Z,124.00
2023-01-22T16:24:12.904Z,118.33
2023-01-22T16:26:41.845Z,179.60
2023-01-22T16:29:11.645Z,136.00
2023-01-22T16:31:42.184Z,169.17
2023-01-22T16:34:13.680Z,176.97
2023-01-22T16:36:43.487Z,155.97
2023-01-22T16:39:18.694Z,183.90
2023-01-22T16:41:49.020Z,188.50
2023-01-22T16:44:19.641Z,261.13
2023-01-22T16:46:52.588Z,254.13
2023-01-22T16:49:23.385Z,291.27
2023-01-22T16:51:54.177Z,278.57
2023-01-22T16:54:28.175Z,223.77
2023-01-22T16:56:58.274Z,166.17
2023-01-22T16:59:45.813Z,120.20
2023-01-22T17:02:19.317Z,140.37
2023-01-22T17:04:48.589Z,107.67
2023-01-22T17:07:32.249Z,150.33
2023-01-22T17:10:02.671Z,136.87
2023-01-22T17:12:31.866Z,133.03
2023-01-22T17:15:00.957Z,110.40
2023-01-22T17:17:31.431Z,139.83
2023-01-22T17:20:00.491Z,108.27
2023-01-22T17:22:29.462Z,93.43
2023-01-22T17:24:58.424Z,79.80
2023-01-22T17:27:27.473Z,68.93
2023-01-22T17:29:56.455Z,62.93
2023-01-22T17:32:26.773Z,50.53
2023-01-22T17:34:57.362Z,53.73
2023-01-22T17:37:26.554Z,97.40
2023-01-22T17:39:55.486Z,68.57
2023-01-22T17:42:24.548Z,58.40
2023-01-22T17:44:53.668Z,54.50
2023-01-22T17:47:22.688Z,50.10
2023-01-22T17:49:51.878Z,52.37
2023-01-22T17:52:23.682Z,67.17
2023-01-22T17:54:54.855Z,52.23
2023-01-22T17:57:23.959Z,56.33
2023-01-22T17:59:53.054Z,71.03
2023-01-22T18:02:22.062Z,72.27
2023-01-22T18:04:52.329Z,65.57
2023-01-22T18:07:41.188Z,60.87
2023-01-22T18:10:11.717Z,57.63
2023-01-22T18:12:41.211Z,52.83
2023-01-22T18:15:12.317Z,59.53
2023-01-22T18:17:42.227Z,55.60
2023-01-22T18:20:13.653Z,60.70
2023-01-22T18:22:44.505Z,58.50
2023-01-22T18:25:13.934Z,86.33
2023-01-22T18:27:43.061Z,73.80
2023-01-22T18:30:15.156Z,61.40
2023-01-22T18:32:44.572Z,59.00
2023-01-22T18:35:13.482Z,51.07
2023-01-22T18:37:44.016Z,62.87
2023-01-22T18:40:14.526Z,53.77
2023-01-22T18:42:43.655Z,51.67
2023-01-22T18:45:13.598Z,52.67
2023-01-22T18:47:42.634Z,50.70
2023-01-22T18:50:16.878Z,42.40
2023-01-22T18:52:47.339Z,57.63
2023-01-22T18:55:17.723Z,48.10
2023-01-22T18:58:21.758Z,49.67
2023-01-22T19:01:12.207Z,49.47
2023-01-22T19:03:42.127Z,44.37
2023-01-22T19:06:14.833Z,47.27
2023-01-22T19:08:48.143Z,47.57
2023-01-22T19:11:17.976Z,48.93
2023-01-22T19:13:47.824Z,49.73
2023-01-22T19:16:19.016Z,42.60
2023-01-22T19:18:48.162Z,51.90
2023-01-22T19:21:19.155Z,42.17
2023-01-22T19:23:51.754Z,42.83
2023-01-22T19:26:24.218Z,41.03
2023-01-22T19:28:55.039Z,39.23
2023-01-22T19:31:26.198Z,40.40
2023-01-22T19:33:56.369Z,40.57
2023-01-22T19:36:27.678Z,38.87
2023-01-22T19:38:59.398Z,34.73
2023-01-22T19:41:31.728Z,43.00
2023-01-22T19:44:02.839Z,36.27
2023-01-22T19:46:32.036Z,54.53
2023-01-22T19:49:00.938Z,48.93
2023-01-22T19:51:30.993Z,38.73
2023-01-22T19:54:04.833Z,43.73
2023-01-22T19:56:37.409Z,44.00
2023-01-22T19:59:09.255Z,38.33
2023-01-22T20:01:39.654Z,36.57
2023-01-22T20:04:12.827Z,38.03
2023-01-22T20:06:45.498Z,42.87
2023-01-22T20:09:19.777Z,44.37
2023-01-22T20:11:54.287Z,44.43
2023-01-22T20:14:24.477Z,41.30
2023-01-22T20:16:54.430Z,43.70
2023-01-22T20:19:23.520Z,39.87
2023-01-22T20:21:52.617Z,41.23
2023-01-22T20:24:23.055Z,39.93
2023-01-22T20:26:55.937Z,46.20
2023-01-22T20:29:25.076Z,41.00
2023-01-22T20:31:54.411Z,42.67
2023-01-22T20:34:23.757Z,44.93
2023-01-22T20:36:52.798Z,45.30
2023-01-22T20:39:23.164Z,47.83
2023-01-22T20:41:52.201Z,46.43
2023-01-22T20:44:21.349Z,49.43
2023-01-22T20:46:51.231Z,50.77
2023-01-22T20:49:20.471Z,47.27
2023-01-22T20:52:08.091Z,42.53
2023-01-22T20:54:50.037Z,54.43
2023-01-22T20:57:27.756Z,53.63
2023-01-22T20:59:57.197Z,48.90
2023-01-22T21:02:27.562Z,47.57
2023-01-22T21:04:56.849Z,56.27
2023-01-22T21:07:25.793Z,47.97
2023-01-22T21:09:56.274Z,51.57
2023-01-22T21:12:25.446Z,80.17
2023-01-22T21:14:55.869Z,91.83
2023-01-22T21:17:25.046Z,123.83
2023-01-22T21:19:55.520Z,121.37
2023-01-22T21:22:25.418Z,111.03
2023-01-22T21:24:56.585Z,108.33
2023-01-22T21:27:26.140Z,106.33
2023-01-22T21:29:56.032Z,132.00
2023-01-22T21:32:25.746Z,156.57
2023-01-22T21:34:55.707Z,147.10
2023-01-22T21:37:25.227Z,157.47
2023-01-22T21:39:56.030Z,177.20
2023-01-22T21:42:42.638Z,185.93
2023-01-22T21:45:29.887Z,179.17
2023-01-22T21:47:59.352Z,145.37
2023-01-22T21:50:28.348Z,152.90
2023-01-22T21:52:58.033Z,164.70
2023-01-22T21:55:53.482Z,153.90
2023-01-22T21:58:23.716Z,141.37
2023-01-22T22:00:54.991Z,152.43
2023-01-22T22:03:24.077Z,153.07
2023-01-22T22:05:57.668Z,143.07
2023-01-22T22:08:26.685Z,150.40
2023-01-22T22:10:57.620Z,146.57
2023-01-22T22:13:26.769Z,149.53
2023-01-22T22:15:55.738Z,148.83
2023-01-22T22:18:24.732Z,138.03
2023-01-22T22:20:54.020Z,133.17
2023-01-22T22:23:23.046Z,135.60
2023-01-22T22:25:52.028Z,134.07
2023-01-22T22:28:22.398Z,127.47
2023-01-22T22:30:51.519Z,159.03
2023-01-22T22:33:20.570Z,132.43
2023-01-22T22:35:49.687Z,126.33
2023-01-22T22:38:18.624Z,128.63
2023-01-22T22:40:58.391Z,128.53
2023-01-22T22:43:28.979Z,122.23
2023-01-22T22:46:02.195Z,131.07
2023-01-22T22:48:31.469Z,109.33
2023-01-22T22:51:00.997Z,107.73
2023-01-22T22:53:30.198Z,113.97
2023-01-22T22:55:59.169Z,100.70
2023-01-22T22:58:29.740Z,92.13
2023-01-22T23:00:58.737Z,100.73
2023-01-22T23:03:27.675Z,100.07
2023-01-22T23:05:56.676Z,99.87
2023-01-22T23:08:25.633Z,89.10
2023-01-22T23:10:54.558Z,94.73
2023-01-22T23:13:23.675Z,86.97
2023-01-22T23:15:54.117Z,80.57
2023-01-22T23:18:23.208Z,80.00
2023-01-22T23:20:52.131Z,71.97
2023-01-22T23:23:21.135Z,65.33
2023-01-22T23:26:12.620Z,59.03
2023-01-22T23:28:41.652Z,58.53
2023-01-22T23:31:14.476Z,49.80
2023-01-22T23:33:43.992Z,57.23
2023-01-22T23:36:15.076Z,82.07
2023-01-22T23:38:44.071Z,97.40
2023-01-22T23:41:15.737Z,117.30
2023-01-22T23:43:45.671Z,139.07
2023-01-22T23:46:18.508Z,161.60
2023-01-22T23:48:47.636Z,168.20
2023-01-22T23:51:18.282Z,160.23
2023-01-22T23:53:49.111Z,166.87
2023-01-22T23:56:36.759Z,175.57
2023-01-22T23:59:06.112Z,175.83
